Terminal Aerodrome Forecast
Issued by NWS Lubbock, TX

Current Version | Previous Version | Text Only | Print | Product List | Glossary On
Versions: 1 2 3 4 5 6 7 8 9 10 11 12 13
000
FTUS44 KLUB 040217 AAA
TAFLBB
TAF AMD
KLBB 040217Z 0402/0424 16013KT P6SM SCT070 BKN200
      TEMPO 0402/0403 VRB25G40KT -TSRA SCT070CB
     FM041200 18013KT P6SM OVC015
     FM041800 15019G25KT P6SM BKN050 PROB30 0421/0424 3SM TSRA
      BKN045CB=

USA.gov is the U.S. government's official web portal to all federal, state and local government web resources and services.